Stormwatcher's Retreat Logo




                  Temp     Hi    Low   Out    Dew  Wind  Wind   Wind    Hi    Hi   Wind   Heat    THW   THSW                Rain  Solar   Solar Hi Solar   UV    UV    Hi     Heat    Cool    In     In    In     In     In   In Air          Wind  Wind    ISS   Arc.
  Date    Time     Out   Temp   Temp   Hum    Pt. Speed   Dir    Run Speed   Dir  Chill  Index  Index  Index   Bar    Rain  Rate   Rad.  Energy    Rad.  Index  Dose   UV     D-D     D-D    Temp   Hum    Dew   Heat    EMC Density     ET   Samp   Tx   Recept  Int.
------------------------------------------------------------------------------------------------------------------------------------------------------------------------------------------------------------------------------------------------------------------------
 5/26/22 12:10a   53.0   53.3   53.0    94   51.3   4.0    NE   0.67   9.0     N   52.3   53.3   52.6   49.7  29.943  0.00  0.00     0     0.00      0     0.0  0.00   0.0   0.083   0.000   73.6    51   54.4   73.3   9.38  .0734    0.000   201    7    100.0   10 
 5/26/22 12:20a   52.8   53.0   52.8    94   51.1   4.0    NE   0.67  10.0    NE   52.1   53.1   52.4   49.5  29.948  0.00  0.00     0     0.00      0     0.0  0.00   0.0   0.085   0.000   73.5    51   54.3   73.2   9.38  .0734    0.000   203    7    100.0   10 
 5/26/22 12:30a   53.1   53.1   52.8    95   51.7   3.0    NE   0.50   7.0    NE   53.1   53.4   53.4   50.5  29.935  0.00  0.00     0     0.00      0     0.0  0.00   0.0   0.083   0.000   73.5    51   54.3   73.2   9.38  .0734    0.000   202    7    100.0   10 
 5/26/22 12:40a   52.7   53.2   52.7    94   51.0   5.0    NE   0.83  10.0    NW   51.4   53.0   51.7   48.8  29.934  0.00  0.00     0     0.00      0     0.0  0.00   0.0   0.085   0.000   73.5    51   54.3   73.2   9.38  .0734    0.000   204    7    100.0   10 
 5/26/22 12:50a   53.0   53.0   52.7    95   51.6   3.0    NE   0.50   5.0    NE   53.0   53.3   53.3   50.4  29.928  0.00  0.00     0     0.00      0     0.0  0.00   0.0   0.083   0.000   73.4    51   54.2   73.1   9.38  .0734    0.000   204    7    100.0   10 
 5/26/22  1:00a   52.6   53.1   52.6    94   50.9   4.0    NE   0.67   9.0     N   51.9   52.9   52.2   49.3  29.928  0.00  0.00     0     0.00      0     0.0  0.00   0.0   0.086   0.000   73.3    51   54.1   73.0   9.38  .0734    0.000   202    7    100.0   10 
 5/26/22  1:10a   52.8   52.8   52.6    95   51.4   4.0    NE   0.67   8.0     N   52.1   53.1   52.4   49.5  29.917  0.00  0.00     0     0.00      0     0.0  0.00   0.0   0.085   0.000   73.3    51   54.1   73.0   9.38  .0734    0.000   202    7    100.0   10 
 5/26/22  1:20a   52.6   52.8   52.5    95   51.2   6.0   NNE   1.00  10.0     N   50.7   52.9   51.0   48.1  29.929  0.00  0.00     0     0.00      0     0.0  0.00   0.0   0.086   0.000   73.3    51   54.1   73.0   9.38  .0734    0.000   203    7    100.0   10 
 5/26/22  1:30a   52.5   52.6   52.5    95   51.1   4.0   NNE   0.67   8.0   NNE   51.8   52.8   52.1   49.2  29.933  0.00  0.00     0     0.00      0     0.0  0.00   0.0   0.087   0.000   73.2    51   54.0   72.8   9.39  .0735    0.000   204    7    100.0   10 
 5/26/22  1:40a   52.5   52.5   52.4    95   51.1   3.0   NNE   0.50   5.0    NE   52.5   52.8   52.8   49.9  29.933  0.00  0.00     0     0.00      0     0.0  0.00   0.0   0.087   0.000   73.1    51   53.9   72.7   9.39  .0735    0.000   202    7    100.0   10 
 5/26/22  1:50a   52.4   52.6   52.4    95   51.0   2.0    NE   0.33   4.0   NNE   52.4   52.7   52.7   49.8  29.934  0.00  0.00     0     0.00      0     0.0  0.00   0.0   0.087   0.000   73.1    51   53.9   72.7   9.39  .0735    0.000   202    7    100.0   10 
 5/26/22  2:00a   52.3   52.4   52.3    95   50.9   1.0    NE   0.17   3.0    NE   52.3   52.6   52.6   49.7  29.932  0.00  0.00     0     0.00      0     0.0  0.00   0.0   0.088   0.000   73.1    51   53.9   72.7   9.39  .0735    0.000   204    7    100.0   10 
 5/26/22  2:10a   52.2   52.3   52.2    95   50.8   1.0    NE   0.17   3.0   NNE   52.2   52.5   52.5   49.6  29.927  0.00  0.00     0     0.00      0     0.0  0.00   0.0   0.089   0.000   73.0    51   53.8   72.6   9.39  .0735    0.000   202    7    100.0   10 
 5/26/22  2:20a   52.0   52.2   52.0    95   50.6   2.0   NNE   0.33   4.0   NNE   52.0   52.3   52.3   49.4  29.922  0.00  0.00     0     0.00      0     0.0  0.00   0.0   0.090   0.000   73.0    51   53.8   72.6   9.39  .0735    0.000   203    7    100.0   10 
 5/26/22  2:30a   51.9   52.0   51.8    95   50.5   2.0   ENE   0.33   5.0     N   51.9   52.2   52.2   49.3  29.917  0.00  0.00     0     0.00      0     0.0  0.00   0.0   0.091   0.000   73.0    51   53.8   72.6   9.39  .0735    0.000   202    7    100.0   10 
 5/26/22  2:40a   51.7   51.9   51.7    95   50.3   3.0   NNE   0.50   5.0   NNE   51.6   52.0   51.9   49.0  29.913  0.00  0.00     0     0.00      0     0.0  0.00   0.0   0.092   0.000   72.9    51   53.7   72.5   9.39  .0735    0.000   205    7    100.0   10 
 5/26/22  2:50a   51.8   51.9   51.7    95   50.4   2.0    NE   0.33   4.0   NNE   51.8   52.1   52.1   49.2  29.911  0.00  0.00     0     0.00      0     0.0  0.00   0.0   0.092   0.000   72.9    51   53.7   72.5   9.39  .0735    0.000   204    7    100.0   10 
 5/26/22  3:00a   51.7   51.9   51.7    95   50.3   3.0   NNE   0.50   4.0   NNE   51.6   52.0   51.9   49.0  29.912  0.00  0.00     0     0.00      0     0.0  0.00   0.0   0.092   0.000   72.8    51   53.6   72.3   9.39  .0735    0.000   204    7    100.0   10 
 5/26/22  3:10a   51.6   51.7   51.6    95   50.2   2.0    NE   0.33   4.0    NE   51.6   51.9   51.9   49.0  29.910  0.00  0.00     0     0.00      0     0.0  0.00   0.0   0.093   0.000   72.8    51   53.6   72.3   9.39  .0735    0.000   203    7    100.0   10 
 5/26/22  3:20a   51.5   51.6   51.4    95   50.1   3.0   NNE   0.50   5.0     N   51.4   51.8   51.7   48.8  29.908  0.00  0.00     0     0.00      0     0.0  0.00   0.0   0.094   0.000   72.7    51   53.5   72.2   9.40  .0735    0.000   205    7    100.0   10 
 5/26/22  3:30a   51.5   51.5   51.4    96   50.4   3.0    NE   0.50   5.0    NE   51.4   51.9   51.8   48.9  29.898  0.00  0.00     0     0.00      0     0.0  0.00   0.0   0.094   0.000   72.7    51   53.5   72.2   9.40  .0735    0.000   202    7    100.0   10 
 5/26/22  3:40a   52.2   52.3   51.5    96   51.1   2.0    NE   0.33   3.0    NE   52.2   52.5   52.5   49.6  29.896  0.00  0.00     0     0.00      0     0.0  0.00   0.0   0.089   0.000   72.6    51   53.4   72.0   9.40  .0735    0.000   203    7    100.0   10 
 5/26/22  3:50a   51.9   52.3   51.8    95   50.5   3.0    NE   0.50   4.0   NNE   51.8   52.2   52.1   49.2  29.901  0.00  0.00     0     0.00      0     0.0  0.00   0.0   0.091   0.000   72.6    51   53.4   72.0   9.40  .0735    0.000   203    7    100.0   10 
 5/26/22  4:00a   51.8   51.9   51.7    95   50.4   3.0   NNE   0.50   7.0   NNE   51.7   52.1   52.0   49.1  29.902  0.00  0.00     0     0.00      0     0.0  0.00   0.0   0.092   0.000   72.5    51   53.3   71.9   9.40  .0735    0.000   205    7    100.0   10 
 5/26/22  4:10a   51.7   51.8   51.5    95   50.3   5.0   NNE   0.83  10.0   NNE   50.2   52.0   50.5   47.6  29.910  0.00  0.00     0     0.00      0     0.0  0.00   0.0   0.092   0.000   72.5    51   53.3   71.9   9.40  .0735    0.000   203    7    100.0   10 
 5/26/22  4:20a   52.2   52.2   51.7    96   51.1   4.0    NE   0.67  10.0   ENE   51.4   52.5   51.7   48.8  29.901  0.00  0.00     0     0.00      0     0.0  0.00   0.0   0.089   0.000   72.5    51   53.3   71.9   9.40  .0735    0.000   200    7    100.0   10 
 5/26/22  4:30a   52.4   52.4   52.2    95   51.0   3.0    NE   0.50   9.0    NE   52.3   52.7   52.6   49.7  29.897  0.00  0.00     0     0.00      0     0.0  0.00   0.0   0.087   0.000   72.4    51   53.2   71.7   9.40  .0735    0.000   203    7    100.0   10 
 5/26/22  4:40a   52.2   52.4   52.2    95   50.8   2.0   ENE   0.33   3.0    SW   52.2   52.5   52.5   49.6  29.892  0.00  0.00     0     0.00      0     0.0  0.00   0.0   0.089   0.000   72.3    50   52.6   71.5   9.25  .0735    0.000   204    7    100.0   10 
 5/26/22  4:50a   52.6   52.7   52.2    96   51.5   2.0    NE   0.33   6.0   ENE   52.6   52.9   52.9   50.0  29.888  0.00  0.00     0     0.00      0     0.0  0.00   0.0   0.086   0.000   72.2    50   52.5   71.4   9.25  .0735    0.000   202    7    100.0   10 
 5/26/22  5:00a   53.9   53.9   52.7    95   52.5   3.0    NE   0.50   6.0   ENE   53.9   54.1   54.1   51.3  29.878  0.00  0.00     0     0.00      0     0.0  0.00   0.0   0.077   0.000   72.2    50   52.5   71.4   9.25  .0735    0.000   204    7    100.0   10 
 5/26/22  5:10a   55.4   55.4   53.9    93   53.4   6.0   ENE   1.00  12.0     E   54.1   55.6   54.3   51.5  29.873  0.00  0.00     0     0.00      0     0.0  0.00   0.0   0.067   0.000   72.2    50   52.5   71.4   9.25  .0735    0.000   202    7    100.0   10 
 5/26/22  5:20a   56.1   56.1   55.4    91   53.5   6.0     E   1.00  12.0     E   54.9   56.2   55.0   52.2  29.864  0.00  0.00     0     0.00      0     0.0  0.00   0.0   0.062   0.000   72.1    50   52.4   71.2   9.25  .0735    0.000   205    7    100.0   10 
 5/26/22  5:30a   56.5   56.5   56.1    89   53.3   9.0     E   1.50  14.0   ENE   53.6   56.6   53.7   51.1  29.860  0.00  0.00     0     0.00      0     0.0  0.00   0.0   0.059   0.000   72.1    50   52.4   71.2   9.25  .0735    0.000   203    7    100.0   10 
 5/26/22  5:40a   56.8   56.8   56.5    88   53.3   9.0     E   1.50  14.0     E   53.9   56.8   53.9   51.3  29.860  0.00  0.00     0     0.00      0     0.0  0.00   0.0   0.057   0.000   72.0    50   52.3   71.1   9.25  .0735    0.000   203    7    100.0   10 
 5/26/22  5:50a   57.1   57.2   56.8    88   53.6  10.0     E   1.67  16.0     E   53.6   57.1   53.6   51.2  29.850  0.00  0.00     2     0.03      5     0.0  0.00   0.0   0.055   0.000   72.0    51   52.9   71.2   9.41  .0735    0.000   201    7    100.0   10 
 5/26/22  6:00a   57.2   57.3   57.1    87   53.4  10.0     E   1.67  19.0     E   53.7   57.2   53.7   51.4  29.851  0.00  0.00     8     0.11     11     0.0  0.00   0.0   0.054   0.000   72.1    51   53.0   71.3   9.41  .0734    0.001   204    7    100.0   10 
 5/26/22  6:10a   57.7   57.7   57.2    87   53.9   8.0   ENE   1.33  15.0     E   55.7   57.7   55.7   53.3  29.868  0.00  0.00    13     0.19     14     0.0  0.00   0.0   0.051   0.000   72.2    51   53.1   71.5   9.41  .0735    0.000   201    7    100.0   10 
 5/26/22  6:20a   58.3   58.3   57.7    86   54.1   3.0   ENE   0.50  10.0   WSW   58.3   58.3   58.3   56.0  29.865  0.00  0.00    18     0.26     21     0.0  0.00   0.0   0.047   0.000   72.3    51   53.2   71.6   9.40  .0734    0.000   203    7    100.0   10 
 5/26/22  6:30a   58.2   58.4   58.2    85   53.7   6.0   ENE   1.00  15.0   ENE   57.4   58.1   57.3   55.0  29.868  0.00  0.00    20     0.29     21     0.0  0.00   0.0   0.047   0.000   72.3    51   53.2   71.6   9.40  .0735    0.000   205    7    100.0   10 
 5/26/22  6:40a   58.4   58.4   58.2    85   53.9   6.0     E   1.00  15.0     E   57.7   58.3   57.6   55.5  29.862  0.00  0.00    30     0.43     39     0.0  0.00   0.0   0.046   0.000   72.5    51   53.3   71.9   9.40  .0734    0.000   202    7    100.0   10 
 5/26/22  6:50a   58.9   58.9   58.4    84   54.1   8.0     E   1.33  17.0   ENE   57.2   58.9   57.2   55.3  29.855  0.00  0.00    32     0.46     39     0.0  0.00   0.0   0.042   0.000   72.6    50   52.9   71.9   9.25  .0734    0.000   204    7    100.0   10 
 5/26/22  7:00a   59.0   59.1   58.9    85   54.5   6.0     E   1.00  14.0   ENE   58.4   59.0   58.4   56.3  29.861  0.00  0.00    27     0.39     28     0.0  0.00   0.0   0.042   0.000   72.7    50   53.0   72.1   9.25  .0734    0.001   203    7    100.0   10 
 5/26/22  7:10a   58.5   59.0   58.5    85   54.0   4.0     E   0.67  11.0    SE   58.5   58.5   58.5   56.5  29.864  0.00  0.00    33     0.47     44     0.0  0.00   0.0   0.045   0.000   72.7    50   53.0   72.1   9.25  .0734    0.000   205    7    100.0   10 
 5/26/22  7:20a   58.4   58.5   58.3    87   54.5   6.0     E   1.00  15.0    SE   57.7   58.4   57.7   58.5  29.853  0.00  0.00    57     0.82     62     0.0  0.00   0.0   0.046   0.000   72.7    50   53.0   72.1   9.25  .0734    0.000   204    7    100.0   10 
 5/26/22  7:30a   58.9   58.9   58.4    87   55.0   9.0   ENE   1.50  20.0     E   56.4   59.0   56.5   57.8  29.845  0.00  0.00    70     1.00     84     0.0  0.00   0.0   0.042   0.000   72.7    50   53.0   72.1   9.25  .0733    0.000   203    7    100.0   10 
 5/26/22  7:40a   59.1   59.1   58.9    86   54.9  10.0   ENE   1.67  17.0     E   55.9   59.1   55.9   57.8  29.837  0.00  0.00    91     1.30     95     0.0  0.00   0.0   0.041   0.000   72.6    50   52.9   71.9   9.25  .0733    0.000   204    7    100.0   10 
 5/26/22  7:50a   59.3   59.3   59.1    86   55.1  10.0     E   1.67  16.0   ENE   56.2   59.4   56.3   58.0  29.835  0.00  0.00    85     1.22     91     0.0  0.00   0.0   0.040   0.000   72.6    50   52.9   71.9   9.25  .0733    0.000   204    7    100.0   10 
 5/26/22  8:00a   59.7   59.8   59.3    85   55.2  11.0   ENE   1.83  18.0     E   56.0   59.8   56.1   58.3  29.831  0.00  0.00   103     1.48    116     0.0  0.00   0.0   0.037   0.000   72.6    50   52.9   71.9   9.25  .0733    0.002   204    7    100.0   10 
 5/26/22  8:10a   59.9   59.9   59.7    85   55.4  11.0   ENE   1.83  19.0     E   56.2   60.0   56.3   58.9  29.831  0.00  0.00   121     1.73    125     0.4  0.03   0.5   0.035   0.000   72.6    50   52.9   71.9   9.25  .0733    0.000   202    7    100.0   10 
 5/26/22  8:20a   60.4   60.4   59.9    84   55.5  10.0   ENE   1.67  19.0     E   57.4   60.5   57.5   60.2  29.829  0.00  0.00   124     1.78    135     0.5  0.04   0.6   0.032   0.000   72.6    50   52.9   71.9   9.25  .0733    0.000   203    7    100.0   10 
 5/26/22  8:30a   60.8   60.8   60.4    83   55.6  10.0     E   1.67  16.0     E   57.9   60.9   58.0   61.3  29.829  0.00  0.00   146     2.09    153     0.6  0.04   0.7   0.029   0.000   72.7    50   53.0   72.1   9.25  .0733    0.000   204    7    100.0   10 
 5/26/22  8:40a   61.7   61.7   60.7    82   56.1  10.0     E   1.67  20.0   ENE   58.9   61.9   59.1   62.6  29.820  0.00  0.00   159     2.28    165     0.8  0.06   0.8   0.023   0.000   72.7    50   53.0   72.1   9.25  .0733    0.000   203    7    100.0   10 
 5/26/22  8:50a   62.7   62.7   61.8    80   56.4  10.0     E   1.67  20.0   ENE   60.1   63.0   60.4   64.2  29.822  0.00  0.00   173     2.48    186     0.9  0.06   1.0   0.016   0.000   72.7    50   53.0   72.1   9.25  .0733    0.000   203    7    100.0   10 
 5/26/22  9:00a   63.4   63.4   62.7    79   56.8  10.0     E   1.67  17.0   ESE   60.9   63.7   61.2   66.0  29.823  0.00  0.00   220     3.15    251     1.2  0.09   1.3   0.011   0.000   72.7    50   53.0   72.1   9.25  .0733    0.005   205    7    100.0   10 
 5/26/22  9:10a   64.1   64.1   63.4    78   57.1  10.0     E   1.67  18.0   ESE   61.7   64.5   62.1   68.9  29.827  0.00  0.00   309     4.43    373     1.5  0.11   1.7   0.006   0.000   72.8    50   53.1   72.2   9.25  .0733    0.000   204    7    100.0   10 
 5/26/22  9:20a   64.9   64.9   64.1    76   57.2   9.0     E   1.50  18.0   SSE   63.5   65.3   63.9   71.5  29.828  0.00  0.00   347     4.97    373     1.7  0.12   1.7   0.001   0.000   72.9    50   53.2   72.4   9.25  .0733    0.000   204    7    100.0   10 
 5/26/22  9:30a   65.0   65.0   64.9    76   57.2  10.0     E   1.67  16.0   ENE   62.8   65.4   63.2   68.7  29.833  0.00  0.00   273     3.91    306     1.6  0.11   1.7   0.000   0.000   72.9    50   53.2   72.4   9.25  .0733    0.000   204    7    100.0   10 
 5/26/22  9:40a   65.3   65.4   65.0    75   57.2   9.0     E   1.50  21.0     S   63.9   65.7   64.3   71.1  29.852  0.00  0.00   332     4.76    353     1.9  0.14   2.1   0.000   0.002   73.0    50   53.3   72.5   9.25  .0733    0.000   205    7    100.0   10 
 5/26/22  9:50a   60.7   65.1   60.6    79   54.1   6.0     S   1.00  21.0     S   60.4   60.6   60.3   69.5  29.876  0.00  0.00   431     6.18    455     2.3  0.16   2.4   0.030   0.000   73.1    50   53.4   72.6   9.25  .0734    0.000   204    7    100.0   10 
 5/26/22 10:00a   59.1   60.6   59.1    81   53.3   4.0     S   0.67  14.0   SSE   59.1   58.9   58.9   67.9  29.887  0.00  0.00   430     6.16    469     2.4  0.17   2.5   0.041   0.000   73.2    50   53.4   72.7   9.25  .0734    0.009   202    7    100.0   10 
 5/26/22 10:10a   58.9   59.1   58.8    83   53.7   4.0     S   0.67   7.0   SSE   58.9   58.8   58.8   65.6  29.886  0.00  0.00   328     4.70    415     2.0  0.14   2.3   0.042   0.000   73.2    50   53.4   72.7   9.25  .0734    0.000   204    7    100.0   10 
 5/26/22 10:20a   58.7   59.1   58.7    82   53.2   6.0     S   1.00  11.0   SSE   58.0   58.6   57.9   66.0  29.883  0.00  0.00   400     5.73    520     2.5  0.18   3.1   0.044   0.000   73.3    50   53.5   72.9   9.25  .0733    0.000   203    7    100.0   10 
 5/26/22 10:30a   58.5   58.8   58.3    83   53.4   4.0     S   0.67   8.0   SSE   58.5   58.4   58.4   68.1  29.877  0.00  0.00   509     7.30    564     3.0  0.21   3.1   0.045   0.000   73.3    50   53.5   72.9   9.25  .0733    0.000   204    7    100.0   10 
 5/26/22 10:40a   57.2   58.6   57.2    83   52.1   3.0     S   0.50   6.0   SSE   57.2   57.0   57.0   65.4  29.874  0.00  0.00   433     6.21    515     2.7  0.19   3.0   0.054   0.000   73.4    51   54.2   73.1   9.38  .0733    0.000   204    7    100.0   10 
 5/26/22 10:50a   56.7   57.3   56.7    84   51.9   2.0     S   0.33   5.0   SSE   56.7   56.6   56.6   64.7  29.877  0.00  0.00   428     6.14    459     2.9  0.21   3.0   0.058   0.000   73.5    50   53.7   73.1   9.25  .0733    0.000   202    7    100.0   10 
 5/26/22 11:00a   56.9   56.9   56.4    86   52.8   1.0     S   0.17   4.0   SSE   56.9   56.8   56.8   65.0  29.871  0.00  0.00   436     6.25    469     3.0  0.21   3.2   0.056   0.000   73.6    51   54.4   73.3   9.38  .0732    0.009   205    7    100.0   10 
 5/26/22 11:10a   58.2   58.2   57.0    86   54.0   1.0     S   0.17   3.0   SSE   58.2   58.2   58.2   67.7  29.868  0.00  0.00   520     7.45    596     3.6  0.26   4.1   0.047   0.000   73.7    51   54.4   73.4   9.38  .0732    0.000   203    7    100.0   10 
 5/26/22 11:20a   58.8   58.8   58.2    86   54.6   1.0     S   0.17   4.0   SSE   58.8   58.8   58.8   69.4  29.862  0.00  0.00   626     8.97    810     4.5  0.32   5.4   0.043   0.000   73.8    51   54.5   73.6   9.37  .0732    0.000   203    7    100.0   10 
 5/26/22 11:30a   59.0   59.4   58.8    83   53.8   2.0     S   0.33   5.0   WSW   59.0   58.9   58.9   69.9  29.862  0.00  0.00   732    10.49    865     5.3  0.38   5.9   0.042   0.000   73.8    51   54.5   73.6   9.37  .0732    0.000   203    7    100.0   10 
 5/26/22 11:40a   56.9   58.9   56.6    87   53.1   2.0   SSW   0.33   6.0   WSW   56.9   56.9   56.9   66.0  29.867  0.00  0.00   511     7.33    554     4.4  0.31   4.7   0.056   0.000   74.0    51   54.7   73.8   9.37  .0732    0.000   204    7    100.0   10 
 5/26/22 11:50a   57.9   58.0   57.0    86   53.7   1.0   SSW   0.17   3.0   SSW   57.9   57.8   57.8   64.7  29.868  0.00  0.00   383     5.49    610     3.4  0.24   4.5   0.049   0.000   74.2    52   55.4   74.2   9.57  .0731    0.000   204    7    100.0   10 
 5/26/22 12:00p   57.8   58.0   57.7    86   53.6   1.0   SSE   0.17   4.0    SE   57.8   57.7   57.7   63.7  29.869  0.00  0.00   337     4.83    352     2.9  0.21   3.0   0.050   0.000   74.4    54   56.7   74.6   9.86  .0730    0.011   203    7    100.0   10 
 5/26/22 12:10p   57.0   57.9   57.0    86   52.9   2.0     S   0.33   5.0   SSW   57.0   56.9   56.9   63.5  29.879  0.00  0.00   371     5.32    401     3.1  0.22   3.3   0.056   0.000   74.6    54   56.9   74.9   9.86  .0730    0.000   203    7    100.0   10 
 5/26/22 12:20p   55.3   56.9   55.3    88   51.8   5.0     S   0.83   8.0   SSE   54.5   55.3   54.5   59.9  29.897  0.00  0.00   315     4.52    350     2.7  0.19   3.0   0.067   0.000   74.7    53   56.4   74.9   9.66  .0731    0.000   204    7    100.0   10 
 5/26/22 12:30p   55.9   55.9   55.3    89   52.7   4.0     S   0.67   7.0     S   55.7   56.0   55.8   59.9  29.899  0.00  0.00   254     3.64    269     2.2  0.16   2.3   0.063   0.000   74.7    53   56.4   74.9   9.66  .0731    0.000   203    7    100.0   10 
 5/26/22 12:40p   55.6   56.0   55.6    89   52.4   5.0     S   0.83   8.0   SSE   54.8   55.7   54.9   58.9  29.903  0.00  0.00   251     3.60    257     2.2  0.16   2.2   0.065   0.000   74.7    53   56.4   74.9   9.66  .0731    0.000   202    7    100.0   10 
 5/26/22 12:50p   56.5   56.5   55.6    90   53.6   2.0     S   0.33   6.0     S   56.5   56.6   56.6   59.7  29.896  0.00  0.00   209     3.00    227     1.9  0.14   2.0   0.059   0.000   74.6    53   56.3   74.8   9.67  .0731    0.000   203    7    100.0   10 
 5/26/22  1:00p   57.0   57.1   56.4    89   53.8   1.0     S   0.17   3.0   SSW   57.0   57.1   57.1   60.9  29.895  0.00  0.00   239     3.43    255     2.1  0.15   2.2   0.056   0.000   74.6    53   56.3   74.8   9.67  .0731    0.006   204    7    100.0   10 
 5/26/22  1:10p   57.7   57.8   56.9    90   54.8   0.0   SSW   0.00   3.0   SSW   57.7   57.8   57.8   62.8  29.890  0.00  0.00   292     4.19    350     2.5  0.18   3.0   0.051   0.000   74.6    53   56.3   74.8   9.67  .0731    0.000   204    7    100.0   10 
 5/26/22  1:20p   58.0   58.0   57.4    89   54.8   1.0   WSW   0.17   4.0   WSW   58.0   58.1   58.1   64.3  29.887  0.00  0.00   350     5.02    357     3.0  0.21   3.0   0.049   0.000   74.7    53   56.4   74.9   9.66  .0730    0.000   204    7    100.0   10 
 5/26/22  1:30p   57.3   58.1   57.2    88   53.8   1.0   WSW   0.17   4.0   WNW   57.3   57.3   57.3   64.1  29.882  0.00  0.00   387     5.55    432     3.2  0.23   3.4   0.053   0.000   74.7    53   56.4   74.9   9.66  .0730    0.000   204    7    100.0   10 
 5/26/22  1:40p   57.4   58.0   57.3    87   53.6   2.0     W   0.33   9.0     W   57.4   57.4   57.4   64.0  29.884  0.00  0.00   373     5.35    411     3.1  0.22   3.4   0.053   0.000   74.8    52   56.0   75.0   9.55  .0730    0.000   204    7    100.0   10 
 5/26/22  1:50p   56.2   57.3   55.9    89   53.0   3.0     W   0.50   8.0     W   56.2   56.3   56.3   61.7  29.885  0.00  0.00   309     4.43    323     2.6  0.19   2.7   0.061   0.000   74.8    52   56.0   75.0   9.55  .0730    0.000   204    7    100.0   10 
 5/26/22  2:00p   57.5   57.5   56.2    89   54.3   1.0   ENE   0.17   2.0   NNE   57.5   57.6   57.6   64.6  29.875  0.00  0.00   394     5.65    476     3.3  0.24   3.8   0.052   0.000   74.9    53   56.6   75.2   9.65  .0730    0.007   201    7    100.0   10 
 5/26/22  2:10p   58.1   58.5   57.6    89   54.9   3.0   NNE   0.50   6.0     W   58.1   58.2   58.2   67.3  29.876  0.00  0.00   526     7.54    663     4.0  0.29   4.7   0.048   0.000   74.9    51   55.6   75.0   9.35  .0730    0.000   204    7    100.0   10 
 5/26/22  2:20p   57.8   58.1   57.5    89   54.6   2.0     W   0.33   4.0   WNW   57.8   57.9   57.9   68.2  29.877  0.00  0.00   623     8.93    693     4.7  0.34   4.9   0.050   0.000   74.5    51   55.2   74.5   9.36  .0731    0.000   204    7    100.0   10 
 5/26/22  2:30p   57.3   58.0   57.3    89   54.1   3.0   WNW   0.50   6.0   WNW   57.3   57.4   57.4   67.1  29.883  0.00  0.00   562     8.06    613     4.2  0.30   4.5   0.053   0.000   74.5    52   55.7   74.6   9.56  .0731    0.000   203    7    100.0   10 
 5/26/22  2:40p   56.2   57.3   56.2    90   53.3   3.0   WNW   0.50   4.0     W   56.2   56.3   56.3   64.6  29.894  0.00  0.00   465     6.67    536     3.6  0.26   4.0   0.061   0.000   74.6    51   55.3   74.6   9.36  .0731    0.000   203    7    100.0   10 
 5/26/22  2:50p   56.2   56.3   56.0    91   53.6   2.0     S   0.33   4.0   WSW   56.2   56.3   56.3   62.9  29.901  0.00  0.00   366     5.25    399     2.9  0.21   3.0   0.061   0.000   74.5    52   55.7   74.6   9.56  .0731    0.000   203    7    100.0   10 
 5/26/22  3:00p   57.2   57.2   56.3    91   54.6   3.0     S   0.50   5.0     S   57.2   57.3   57.3   64.8  29.903  0.00  0.00   412     5.91    436     3.1  0.22   3.2   0.054   0.000   74.4    51   55.1   74.4   9.36  .0732    0.010   202    7    100.0   10 
 5/26/22  3:10p   58.2   58.3   57.2    89   55.0   3.0     S   0.50   6.0   SSE   58.2   58.3   58.3   64.8  29.907  0.00  0.00   356     5.10    387     2.6  0.19   2.8   0.047   0.000   74.4    51   55.1   74.4   9.36  .0732    0.000   203    7    100.0   10 
 5/26/22  3:20p   55.9   58.1   55.9    89   52.7   4.0   SSW   0.67   8.0   SSW   55.7   56.0   55.8   61.1  29.914  0.00  0.00   296     4.24    325     2.2  0.16   2.4   0.063   0.000   74.3    52   55.5   74.3   9.56  .0732    0.000   204    7    100.0   10 
 5/26/22  3:30p   54.8   55.8   54.8    90   51.9   6.0    SW   1.00  10.0    SW   53.4   54.9   53.5   58.0  29.916  0.00  0.00   262     3.76    316     1.9  0.14   2.3   0.071   0.000   74.4    52   55.6   74.4   9.56  .0732    0.000   202    7    100.0   10 
 5/26/22  3:40p   54.3   54.7   54.3    92   52.0   7.0    SW   1.17  11.0    SW   52.4   54.4   52.5   56.2  29.916  0.00  0.00   227     3.25    265     1.6  0.11   1.8   0.074   0.000   74.4    51   55.1   74.4   9.36  .0732    0.000   200    7    100.0   10 
 5/26/22  3:50p   54.7   54.7   54.3    92   52.4   8.0     S   1.33  11.0     S   52.1   54.8   52.2   57.3  29.913  0.00  0.00   297     4.26    318     2.0  0.14   2.0   0.072   0.000   74.5    51   55.2   74.5   9.36  .0732    0.000   202    7    100.0   10 
 5/26/22  4:00p   55.9   55.9   54.7    93   53.9   7.0     S   1.17  12.0     S   54.3   56.1   54.5   62.9  29.903  0.00  0.00   448     6.42    517     2.6  0.19   2.9   0.063   0.000   74.6    51   55.3   74.6   9.36  .0731    0.007   203    7    100.0   10 
 5/26/22  4:10p   57.7   57.8   56.0    89   54.5  10.0     S   1.67  16.0   SSE   54.3   57.8   54.4   61.8  29.897  0.00  0.00   433     6.21    450     2.5  0.18   2.6   0.051   0.000   74.6    51   55.3   74.6   9.36  .0731    0.000   201    7    100.0   10 
 5/26/22  4:20p   58.1   58.1   57.5    89   54.9  11.0     S   1.83  16.0     S   54.1   58.2   54.2   60.9  29.891  0.00  0.00   395     5.66    408     2.3  0.16   2.4   0.048   0.000   74.6    51   55.3   74.6   9.36  .0731    0.000   204    7    100.0   10 
 5/26/22  4:30p   58.4   58.4   57.8    87   54.5  11.0     S   1.83  15.0   SSE   54.5   58.4   54.5   61.5  29.885  0.00  0.00   403     5.78    443     2.2  0.16   2.3   0.046   0.000   74.6    51   55.3   74.6   9.36  .0731    0.000   204    7    100.0   10 
 5/26/22  4:40p   58.7   58.8   58.4    86   54.5  11.0     S   1.83  16.0   SSE   54.8   58.7   54.8   62.4  29.878  0.00  0.00   431     6.18    461     2.2  0.16   2.4   0.044   0.000   74.6    50   54.7   74.5   9.25  .0731    0.000   205    7    100.0   10 
 5/26/22  4:50p   58.7   58.7   58.3    86   54.5   7.0     S   1.17  14.0     S   57.6   58.7   57.6   67.0  29.870  0.00  0.00   455     6.52    543     2.2  0.16   2.4   0.044   0.000   74.6    51   55.3   74.6   9.36  .0731    0.000   202    7    100.0   10 
 5/26/22  5:00p   59.1   59.1   58.6    86   54.9   5.0     S   0.83  10.0     S   58.9   59.1   58.9   66.5  29.864  0.00  0.00   340     4.87    381     1.8  0.13   1.8   0.041   0.000   74.6    51   55.3   74.6   9.36  .0730    0.009   203    7    100.0   10 
 5/26/22  5:10p   59.1   59.4   59.0    85   54.6   3.0     S   0.50   6.0   SSE   59.1   59.1   59.1   65.3  29.865  0.00  0.00   274     3.93    315     1.4  0.10   1.6   0.041   0.000   74.7    51   55.4   74.8   9.36  .0730    0.000   204    7    100.0   10 
 5/26/22  5:20p   59.4   59.4   58.8    86   55.2   2.0     S   0.33   5.0   SSE   59.4   59.5   59.5   66.5  29.863  0.00  0.00   294     4.21    346     1.3  0.09   1.4   0.039   0.000   74.7    51   55.4   74.8   9.36  .0730    0.000   204    7    100.0   10 
 5/26/22  5:30p   59.4   59.5   59.3    85   54.9   1.0     S   0.17   3.0     S   59.4   59.4   59.4   67.1  29.861  0.00  0.00   318     4.56    457     1.3  0.09   1.6   0.039   0.000   74.8    51   55.5   74.9   9.35  .0730    0.000   203    7    100.0   10 
 5/26/22  5:40p   60.6   60.6   59.4    85   56.1   1.0    SW   0.17   2.0    SW   60.6   60.8   60.8   73.1  29.856  0.00  0.00   540     7.74    585     1.8  0.13   1.9   0.031   0.000   75.0    51   55.6   75.2   9.35  .0730    0.000   204    7    100.0   10 
 5/26/22  5:50p   61.0   61.1   60.6    83   55.8   3.0     N   0.50   8.0     N   61.0   61.1   61.1   72.7  29.858  0.00  0.00   492     7.05    552     1.6  0.11   1.8   0.028   0.000   75.1    51   55.7   75.3   9.35  .0729    0.000   203    7    100.0   10 
 5/26/22  6:00p   61.4   61.6   60.9    83   56.2   2.0    NE   0.33   5.0     N   61.4   61.6   61.6   70.5  29.860  0.00  0.00   341     4.89    489     1.3  0.09   1.5   0.025   0.000   75.1    51   55.7   75.3   9.35  .0729    0.008   205    7    100.0   10 
 5/26/22  6:10p   61.1   61.5   60.9    83   55.9   1.0    NW   0.17   2.0   NNW   61.1   61.2   61.2   68.4  29.860  0.00  0.00   261     3.74    315     1.0  0.07   1.1   0.027   0.000   75.2    51   55.8   75.4   9.35  .0729    0.000   203    7    100.0   10 
 5/26/22  6:20p   61.9   62.0   61.1    81   56.0   1.0   SSE   0.17   4.0   SSE   61.9   62.1   62.1   69.7  29.857  0.00  0.00   266     3.81    366     0.9  0.06   1.0   0.022   0.000   75.3    51   55.9   75.4   9.35  .0729    0.000   204    7    100.0   10 
 5/26/22  6:30p   60.4   62.0   60.4    81   54.5   2.0    SW   0.33   4.0    SW   60.4   60.4   60.4   64.8  29.863  0.00  0.00   161     2.31    193     0.7  0.05   0.7   0.032   0.000   75.4    51   56.0   75.5   9.35  .0729    0.000   204    7    100.0   10 
 5/26/22  6:40p   58.2   60.4   58.2    84   53.4   2.0    SW   0.33   5.0   WSW   58.2   58.1   58.1   60.2  29.875  0.00  0.00    94     1.35    104     0.2  0.01   0.5   0.047   0.000   75.3    51   55.9   75.4   9.35  .0730    0.000   204    7    100.0   10 
 5/26/22  6:50p   58.4   58.5   58.1    86   54.2   1.0   SSE   0.17   4.0   SSE   58.4   58.4   58.4   60.9  29.880  0.00  0.00   102     1.46    125     0.0  0.00   0.0   0.046   0.000   75.2    50   55.3   75.3   9.25  .0730    0.000   203    7    100.0   10 
 5/26/22  7:00p   58.4   58.5   58.3    85   53.9   2.0   SSE   0.33   4.0   SSE   58.4   58.3   58.3   60.8  29.886  0.00  0.00   100     1.43    120     0.0  0.00   0.0   0.046   0.000   75.1    50   55.2   75.2   9.25  .0730    0.004   203    7    100.0   10 
 5/26/22  7:10p   57.0   58.4   57.0    85   52.5   4.0     S   0.67   9.0   SSE   57.0   56.9   56.9   58.5  29.891  0.00  0.00    78     1.12     90     0.0  0.00   0.0   0.056   0.000   75.0    50   55.1   75.1   9.25  .0731    0.000   203    7    100.0   10 
 5/26/22  7:20p   56.8   57.0   56.7    87   53.0   8.0     S   1.33  12.0   SSE   54.7   56.8   54.7   56.3  29.890  0.00  0.00    81     1.16     88     0.0  0.00   0.0   0.057   0.000   74.9    50   55.0   75.0   9.25  .0731    0.000   204    7    100.0   10 
 5/26/22  7:30p   56.2   56.7   56.2    89   53.0   7.0     S   1.17  11.0     S   54.6   56.3   54.7   53.8  29.892  0.00  0.00    76     1.09     83     0.0  0.00   0.0   0.061   0.000   75.0    51   55.6   75.2   9.35  .0730    0.000   203    7    100.0   10 
 5/26/22  7:40p   56.2   56.3   56.2    89   53.0   8.0     S   1.33  11.0     S   53.9   56.3   54.0   53.4  29.896  0.00  0.00    92     1.32    116     0.0  0.00   0.0   0.061   0.000   75.1    50   55.2   75.2   9.25  .0731    0.000   203    7    100.0   10 
 5/26/22  7:50p   55.9   56.2   55.9    89   52.7   6.0     S   1.00  12.0     S   54.7   56.0   54.8   53.6  29.899  0.00  0.00    66     0.95    111     0.0  0.00   0.0   0.063   0.000   75.0    50   55.1   75.1   9.25  .0731    0.000   201    7    100.0   10 
 5/26/22  8:00p   54.5   55.8   54.5    90   51.6   9.0     S   1.50  13.0    SE   51.2   54.6   51.3   49.6  29.912  0.00  0.00    35     0.50     46     0.0  0.00   0.0   0.073   0.000   74.9    51   55.6   75.0   9.35  .0731    0.002   203    7    100.0   10 
 5/26/22  8:10p   54.4   54.6   54.2    92   52.1   9.0     S   1.50  14.0     S   51.1   54.5   51.2   49.3  29.915  0.00  0.00    26     0.37     30     0.0  0.00   0.0   0.074   0.000   74.9    51   55.6   75.0   9.35  .0731    0.000   204    7    100.0   10 
 5/26/22  8:20p   54.8   54.9   54.5    92   52.5   8.0     S   1.33  11.0     S   52.3   54.9   52.4   50.1  29.915  0.00  0.00    14     0.20     19     0.0  0.00   0.0   0.071   0.000   74.9    51   55.6   75.0   9.35  .0731    0.000   203    7    100.0   10 
 5/26/22  8:30p   55.2   55.2   54.8    92   52.9   8.0     S   1.33  11.0   SSE   52.7   55.3   52.8   50.4  29.919  0.00  0.00     9     0.13      9     0.0  0.00   0.0   0.068   0.000   74.8    51   55.5   74.9   9.35  .0731    0.000   202    7    100.0   10 
 5/26/22  8:40p   55.9   56.0   55.3    90   53.0   8.0     S   1.33  13.0   SSE   53.6   56.0   53.7   51.3  29.923  0.00  0.00     8     0.11      9     0.0  0.00   0.0   0.063   0.000   74.7    51   55.4   74.8   9.36  .0732    0.000   203    7    100.0   10 
 5/26/22  8:50p   56.2   56.3   55.9    90   53.3   9.0     S   1.50  15.0   SSE   53.2   56.3   53.3   50.9  29.917  0.00  0.00     1     0.01      5     0.0  0.00   0.0   0.061   0.000   74.6    51   55.3   74.6   9.36  .0732    0.000   203    7    100.0   10 
 5/26/22  9:00p   56.4   56.4   56.2    89   53.2   7.0     S   1.17  14.0   SSE   54.9   56.5   55.0   52.4  29.917  0.00  0.00     0     0.00      0     0.0  0.00   0.0   0.060   0.000   74.6    51   55.3   74.6   9.36  .0732    0.001   204    7    100.0   10 
 5/26/22  9:10p   56.3   56.4   56.3    88   52.8   8.0     S   1.33  14.0   SSE   54.1   56.3   54.1   51.5  29.915  0.00  0.00     0     0.00      0     0.0  0.00   0.0   0.060   0.000   74.5    51   55.2   74.5   9.36  .0732    0.000   202    7    100.0   10 
 5/26/22  9:20p   56.4   56.4   56.2    86   52.3   6.0     S   1.00  11.0   SSE   55.3   56.3   55.2   52.5  29.915  0.00  0.00     0     0.00      0     0.0  0.00   0.0   0.060   0.000   74.5    51   55.2   74.5   9.36  .0732    0.000   203    7    100.0   10 
 5/26/22  9:30p   57.0   57.0   56.4    82   51.6   8.0     S   1.33  14.0   SSE   54.9   56.8   54.7   52.1  29.921  0.00  0.00     0     0.00      0     0.0  0.00   0.0   0.056   0.000   74.5    51   55.2   74.5   9.36  .0732    0.000   204    7    100.0   10 
 5/26/22  9:40p   57.2   57.2   56.9    80   51.1   6.0     S   1.00  10.0    SE   56.2   56.9   55.9   53.2  29.922  0.00  0.00     0     0.00      0     0.0  0.00   0.0   0.054   0.000   74.4    51   55.1   74.4   9.36  .0732    0.000   204    7    100.0   10 
 5/26/22  9:50p   57.2   57.4   57.2    78   50.4   8.0     S   1.33  12.0     S   55.1   56.8   54.7   52.0  29.925  0.00  0.00     0     0.00      0     0.0  0.00   0.0   0.054   0.000   74.4    51   55.1   74.4   9.36  .0732    0.000   205    7    100.0   10 
 5/26/22 10:00p   56.8   57.2   56.7    79   50.4   7.0     S   1.17  12.0     S   55.4   56.5   55.1   52.3  29.932  0.00  0.00     0     0.00      0     0.0  0.00   0.0   0.057   0.000   74.3    52   55.5   74.3   9.56  .0732    0.001   204    7    100.0   10 
 5/26/22 10:10p   56.1   56.9   56.0    80   50.0   6.0     S   1.00  10.0   SSE   54.9   55.8   54.6   51.8  29.930  0.00  0.00     0     0.00      0     0.0  0.00   0.0   0.062   0.000   74.3    52   55.5   74.3   9.56  .0732    0.000   204    7    100.0   10 
 5/26/22 10:20p   56.6   56.6   56.0    79   50.2   7.0     S   1.17  12.0   SSE   55.1   56.3   54.8   52.0  29.931  0.00  0.00     0     0.00      0     0.0  0.00   0.0   0.058   0.000   74.2    52   55.4   74.2   9.57  .0733    0.000   204    7    100.0   10 
 5/26/22 10:30p   55.7   56.8   55.7    81   50.0   8.0     S   1.33  13.0     S   53.3   55.4   53.0   50.3  29.934  0.00  0.00     0     0.00      0     0.0  0.00   0.0   0.065   0.000   74.2    52   55.4   74.2   9.57  .0733    0.000   205    7    100.0   10 
 5/26/22 10:40p   56.7   56.7   55.7    80   50.6   8.0     S   1.33  13.0     S   54.5   56.4   54.2   51.5  29.933  0.00  0.00     0     0.00      0     0.0  0.00   0.0   0.058   0.000   74.2    52   55.4   74.2   9.57  .0733    0.000   204    7    100.0   10 
 5/26/22 10:50p   56.3   57.1   56.3    81   50.5   8.0     S   1.33  14.0     S   54.1   56.0   53.8   51.1  29.934  0.00  0.00     0     0.00      0     0.0  0.00   0.0   0.060   0.000   74.1    52   55.3   74.0   9.57  .0733    0.000   203    7    100.0   10 
 5/26/22 11:00p   57.0   57.0   56.3    81   51.2   9.0     S   1.50  15.0   SSE   54.1   56.7   53.8   51.3  29.931  0.00  0.00     0     0.00      0     0.0  0.00   0.0   0.056   0.000   74.0    52   55.3   73.9   9.57  .0733    0.001   204    7    100.0   10 
 5/26/22 11:10p   56.6   57.0   56.6    83   51.5   8.0     S   1.33  16.0     S   54.4   56.4   54.2   51.6  29.932  0.00  0.00     0     0.00      0     0.0  0.00   0.0   0.058   0.000   74.0    52   55.3   73.9   9.57  .0733    0.000   202    7    100.0   10 
 5/26/22 11:20p   56.8   57.0   56.7    84   52.0   9.0     S   1.50  20.0   SSE   53.9   56.7   53.8   51.3  29.931  0.00  0.00     0     0.00      0     0.0  0.00   0.0   0.057   0.000   74.0    52   55.3   73.9   9.57  .0733    0.000   202    7    100.0   10 
 5/26/22 11:30p   56.7   56.9   56.6    85   52.2   8.0     S   1.33  14.0     S   54.5   56.6   54.4   51.8  29.932  0.00  0.00     0     0.00      0     0.0  0.00   0.0   0.058   0.000   74.0    52   55.3   73.9   9.57  .0733    0.000   202    7    100.0   10 
 5/26/22 11:40p   56.5   56.7   56.5    86   52.4  10.0     S   1.67  17.0   SSE   52.9   56.4   52.8   50.4  29.931  0.00  0.00     0     0.00      0     0.0  0.00   0.0   0.059   0.000   73.9    52   55.2   73.8   9.57  .0733    0.000   205    7    100.0   10 
 5/26/22 11:50p   56.4   56.6   56.0    88   52.9   9.0     S   1.50  18.0   SSE   53.4   56.4   53.4   50.9  29.936  0.00  0.00     0     0.00      0     0.0  0.00   0.0   0.060   0.000   73.9    52   55.2   73.8   9.57  .0733    0.000   203    7    100.0   10 
 5/27/22 12:00a   56.3   56.4   56.2    88   52.8   7.0     S   1.17  16.0     S   54.8   56.3   54.8   52.1  29.936  0.00  0.00     0     0.00      0     0.0  0.00   0.0   0.060   0.000   73.8    52   55.1   73.7   9.57  .0733    0.001   204    7    100.0   10 
 5/27/22 12:10a   56.1   56.4   56.1    89   52.9   7.0     S   1.17  13.0   SSE   54.5   56.2   54.6   51.9  29.936  0.00  0.00     0     0.00      0     0.0  0.00   0.0   0.062   0.000   73.8    51   54.5   73.6   9.37  .0734    0.000   202    7    100.0   10 
 5/27/22 12:20a   55.7   56.1   55.7    90   52.8   9.0     S   1.50  20.0     S   52.6   55.8   52.7   50.2  29.935  0.00  0.00     0     0.00      0     0.0  0.00   0.0   0.065   0.000   73.8    51   54.5   73.6   9.37  .0734    0.000   204    7    100.0   10 
 5/27/22 12:30a   55.5   55.8   55.5    91   52.9   7.0     S   1.17  12.0     S   53.8   55.6   53.9   51.2  29.936  0.00  0.00     0     0.00      0     0.0  0.00   0.0   0.066   0.000   73.7    52   55.0   73.5   9.58  .0734    0.000   203    7    100.0   10 
 5/27/22 12:40a   55.1   55.5   55.1    92   52.8   9.0     S   1.50  16.0   SSE   51.9   55.2   52.0   49.5  29.937  0.00  0.00     0     0.00      0     0.0  0.00   0.0   0.069   0.000   73.7    52   55.0   73.5   9.58  .0734    0.000   204    7    100.0   10 
 5/27/22 12:50a   54.7   55.1   54.7    93   52.7   7.0     S   1.17  14.0     S   52.8   54.9   53.0   50.3  29.937  0.00  0.00     0     0.00      0     0.0  0.00   0.0   0.072   0.000   73.6    51   54.4   73.3   9.38  .0734    0.000   204    7    100.0   10 
 5/27/22  1:00a   54.6   54.7   54.3    94   52.9   8.0     S   1.33  15.0     S   52.0   54.8   52.2   49.6  29.940  0.00  0.00     0     0.00      0     0.0  0.00   0.0   0.072   0.000   73.6    51   54.4   73.3   9.38  .0734    0.001   203    7    100.0   10 
 5/27/22  1:10a   53.8   54.6   53.7    94   52.1   9.0     S   1.50  15.0   SSE   50.4   54.0   50.6   48.1  29.943  0.01  0.00     0     0.00      0     0.0  0.00   0.0   0.078   0.000   73.6    52   54.9   73.4   9.58  .0734    0.000   202    7    100.0   10 
 5/27/22  1:20a   52.9   53.7   52.9    95   51.5  10.0     S   1.67  17.0   SSE   48.7   53.2   49.0   46.6  29.946  0.00  0.00     0     0.00      0     0.0  0.00   0.0   0.084   0.000   73.5    51   54.3   73.2   9.38  .0734    0.000   203    7    100.0   10 
 5/27/22  1:30a   52.6   53.0   52.6    95   51.2  10.0     S   1.67  16.0   SSE   48.3   52.9   48.6   46.2  29.948  0.02  0.19     0     0.00      0     0.0  0.00   0.0   0.086   0.000   73.5    51   54.3   73.2   9.38  .0734    0.000   201    7    100.0   10 
 5/27/22  1:40a   52.4   52.5   52.2    96   51.3  10.0    SW   1.67  17.0    SW   48.1   52.7   48.4   46.0  29.960  0.01  0.19     0     0.00      0     0.0  0.00   0.0   0.087   0.000   73.5    51   54.3   73.2   9.38  .0735    0.000   201    7    100.0   10 
 5/27/22  1:50a   51.9   52.3   51.9    96   50.8   6.0    SW   1.00  10.0   WSW   49.9   52.3   50.3   47.5  29.970  0.03  0.17     0     0.00      0     0.0  0.00   0.0   0.091   0.000   73.4    51   54.2   73.1   9.38  .0735    0.000   203    7    100.0   10 
 5/27/22  2:00a   52.1   52.2   51.9    96   51.0   4.0    SW   0.67   8.0   WSW   51.3   52.4   51.6   48.8  29.974  0.06  0.57     0     0.00      0     0.0  0.00   0.0   0.090   0.000   73.3    51   54.1   73.0   9.38  .0735    0.000   202    7    100.0   10 
 5/27/22  2:10a   51.3   52.2   51.3    96   50.2   5.0    SW   0.83  12.0    SW   49.8   51.7   50.2   47.4  29.974  0.03  0.37     0     0.00      0     0.0  0.00   0.0   0.095   0.000   73.3    52   54.6   73.1   9.58  .0735    0.000   202    7    100.0   10 
 5/27/22  2:20a   51.3   51.4   51.3    96   50.2   1.0   SSE   0.17   3.0   SSE   51.3   51.7   51.7   48.9  29.978  0.01  0.18     0     0.00      0     0.0  0.00   0.0   0.095   0.000   73.2    52   54.5   72.9   9.59  .0736    0.000   202    7    100.0   10 
 5/27/22  2:30a   51.5   51.5   51.3    96   50.4   1.0     E   0.17   2.0   ESE   51.5   51.9   51.9   49.1  29.977  0.03  0.22     0     0.00      0     0.0  0.00   0.0   0.094   0.000   73.2    52   54.5   72.9   9.59  .0735    0.000   204    7    100.0   10 
 5/27/22  2:40a   51.7   51.7   51.4    96   50.6   1.0   SSE   0.17   4.0   SSE   51.7   52.1   52.1   49.3  29.977  0.02  0.22     0     0.00      0     0.0  0.00   0.0   0.092   0.000   73.1    51   53.9   72.7   9.39  .0736    0.000   204    7    100.0   10 
 5/27/22  2:50a   51.7   51.8   51.7    96   50.6   1.0     S   0.17   4.0     S   51.7   52.1   52.1   49.3  29.975  0.02  0.22     0     0.00      0     0.0  0.00   0.0   0.092   0.000   73.1    51   53.9   72.7   9.39  .0736    0.000   201    7    100.0   10 
 5/27/22  3:00a   51.8   51.8   51.7    97   51.0   1.0     S   0.17   3.0   SSE   51.8   52.2   52.2   49.4  29.975  0.01  0.13     0     0.00      0     0.0  0.00   0.0   0.092   0.000   73.1    51   53.9   72.7   9.39  .0736    0.000   202    7    100.0   10 
 5/27/22  3:10a   51.7   51.9   51.7    97   50.9   2.0     S   0.33   4.0   SSE   51.7   52.1   52.1   49.3  29.984  0.01  0.06     0     0.00      0     0.0  0.00   0.0   0.092   0.000   73.0    51   53.8   72.6   9.39  .0736    0.000   203    7    100.0   10 
 5/27/22  3:20a   51.5   51.7   51.4    96   50.4   2.0     S   0.33   8.0   SSE   51.5   51.9   51.9   49.1  29.985  0.00  0.00     0     0.00      0     0.0  0.00   0.0   0.094   0.000   73.0    51   53.8   72.6   9.39  .0736    0.000   201    7    100.0   10 
 5/27/22  3:30a   51.7   51.7   51.5    96   50.6   1.0   ESE   0.17   2.0   SSE   51.7   52.1   52.1   49.3  29.986  0.00  0.00     0     0.00      0     0.0  0.00   0.0   0.092   0.000   72.9    51   53.7   72.5   9.39  .0736    0.000   202    7    100.0   10 
 5/27/22  3:40a   51.7   51.7   51.6    96   50.6   0.0   ESE   0.00   2.0   ESE   51.7   52.1   52.1   49.3  29.985  0.01  0.00     0     0.00      0     0.0  0.00   0.0   0.092   0.000   72.9    51   53.7   72.5   9.39  .0736    0.000   202    7    100.0   10 
 5/27/22  3:50a   51.6   51.8   51.6    96   50.5   1.0   ESE   0.17   2.0   ESE   51.6   52.0   52.0   49.2  29.985  0.00  0.00     0     0.00      0     0.0  0.00   0.0   0.093   0.000   72.8    51   53.6   72.3   9.39  .0737    0.000   204    7    100.0   10 
 5/27/22  4:00a   51.6   51.7   51.5    96   50.5   0.0   ESE   0.00   2.0   ESE   51.6   52.0   52.0   49.2  29.987  0.01  0.00     0     0.00      0     0.0  0.00   0.0   0.093   0.000   72.7    51   53.5   72.2   9.40  .0737    0.000   204    7    100.0   10 
 5/27/22  4:10a   51.5   51.6   51.5    96   50.4   1.0   ESE   0.17   2.0   ESE   51.5   51.9   51.9   49.1  29.986  0.00  0.00     0     0.00      0     0.0  0.00   0.0   0.094   0.000   72.7    51   53.5   72.2   9.40  .0737    0.000   204    7    100.0   10 
 5/27/22  4:20a   51.6   51.6   51.5    97   50.8   1.0   ESE   0.17   2.0   ESE   51.6   52.0   52.0   49.2  29.986  0.00  0.00     0     0.00      0     0.0  0.00   0.0   0.093   0.000   72.6    51   53.4   72.0   9.40  .0737    0.000   204    7    100.0   10 
 5/27/22  4:30a   51.7   51.7   51.6    97   50.9   0.0   ESE   0.00   2.0   ESE   51.7   52.1   52.1   49.3  29.987  0.00  0.00     0     0.00      0     0.0  0.00   0.0   0.092   0.000   72.6    51   53.4   72.0   9.40  .0737    0.000   202    7    100.0   10 
 5/27/22  4:40a   51.8   51.8   51.7    97   51.0   0.0   ESE   0.00   2.0   ESE   51.8   52.2   52.2   49.4  29.987  0.01  0.00     0     0.00      0     0.0  0.00   0.0   0.092   0.000   72.5    51   53.3   71.9   9.40  .0737    0.000   204    7    100.0   10 
 5/27/22  4:50a   51.8   51.8   51.7    97   51.0   1.0   ESE   0.17   3.0   ESE   51.8   52.2   52.2   49.4  29.987  0.00  0.00     0     0.00      0     0.0  0.00   0.0   0.092   0.000   72.5    51   53.3   71.9   9.40  .0737    0.000   203    7    100.0   10 
 5/27/22  5:00a   51.7   51.8   51.7    97   50.9   1.0   ESE   0.17   3.0     E   51.7   52.1   52.1   49.3  29.990  0.00  0.00     0     0.00      0     0.0  0.00   0.0   0.092   0.000   72.5    51   53.3   71.9   9.40  .0737    0.000   204    7    100.0   10 
 5/27/22  5:10a   51.7   51.7   51.6    97   50.9   0.0    SE   0.00   3.0   ESE   51.7   52.1   52.1   49.3  29.991  0.00  0.00     0     0.00      0     0.0  0.00   0.0   0.092   0.000   72.4    51   53.2   71.7   9.40  .0737    0.000   203    7    100.0   10 
 5/27/22  5:20a   51.7   51.8   51.6    97   50.9   1.0   ESE   0.17   3.0    SE   51.7   52.1   52.1   49.3  29.996  0.00  0.00     0     0.00      0     0.0  0.00   0.0   0.092   0.000   72.4    51   53.2   71.7   9.40  .0738    0.000   205    7    100.0   10 
 5/27/22  5:30a   51.7   51.8   51.7    97   50.9   1.0   ESE   0.17   3.0   ESE   51.7   52.1   52.1   49.3  29.995  0.00  0.00     0     0.00      0     0.0  0.00   0.0   0.092   0.000   72.3    51   53.2   71.6   9.40  .0738    0.000   202    7    100.0   10 
 5/27/22  5:40a   51.7   51.7   51.6    97   50.9   1.0    SE   0.17   3.0     E   51.7   52.1   52.1   49.3  29.994  0.00  0.00     0     0.00      0     0.0  0.00   0.0   0.092   0.000   72.3    51   53.2   71.6   9.40  .0738    0.000   203    7    100.0   10 
 5/27/22  5:50a   51.6   51.7   51.6    97   50.8   1.0   ESE   0.17   3.0   ESE   51.6   52.0   52.0   49.3  29.993  0.00  0.00     3     0.04      7     0.0  0.00   0.0   0.093   0.000   72.3    51   53.2   71.6   9.40  .0738    0.000   202    7    100.0   10 
Email: AdamSPAM@StormwatchersRetreat.com (To send me email remove the word 'SPAM' from my email address.)